KLM246 EHAM-SMJP
Flight info
| Callsign | KLM246 |
|---|---|
| Flight time | N/A |
| Altitude | 36000 |
| Route | IDRID L980 LOGAN DCT SAM N19 ADKIK DCT JOZMA DCT GAPLI/M081F360 DCT OMOKO DCT 45N020W 38N030W/M081F380 33N035W 28N040W/M081F400 24N045W DCT NEZBT/N0464F400 DCT 16N050W 0927N05300W 0730N05400W DCT TODOL |
| Aircraft | B772/H-SDE2E3FGHIJ5LORVWXY/LB1D1 |
Departure
| Time | 2026-05-05 09:33 |
|---|---|
| Airport | Amsterdam Airport Schiphol (EHAM) |
Arrival
| Time | N/A |
|---|---|
| Airport | Johan Adolf Pengel International Airport (SMJP) |
| Time | Latitude | Longitude | Altitude | Speed | Heading |
|---|---|---|---|---|---|
| 2026-05-05 08:50 | 52.31200 | 4.76087 | 3 ft | 0 kts | 88° |
| 2026-05-05 08:55 | 52.31200 | 4.76086 | 3 ft | 0 kts | 88° |
| 2026-05-05 09:03 | 52.31200 | 4.76085 | 3 ft | 0 kts | 88° |
| 2026-05-05 09:12 | 52.31200 | 4.76084 | 3 ft | 0 kts | 88° |
| 2026-05-05 09:13 | 52.31200 | 4.76074 | 3 ft | 4 kts | 87° |
| 2026-05-05 09:14 | 52.31199 | 4.76030 | 3 ft | 4 kts | 87° |
| 2026-05-05 09:14 | 52.31198 | 4.76006 | 3 ft | 4 kts | 91° |
| 2026-05-05 09:14 | 52.31202 | 4.75965 | 6 ft | 4 kts | 125° |
| 2026-05-05 09:14 | 52.31219 | 4.75944 | 6 ft | 4 kts | 162° |
| 2026-05-05 09:15 | 52.31246 | 4.75938 | 5 ft | 4 kts | 179° |
| 2026-05-05 09:15 | 52.31267 | 4.75936 | 6 ft | 4 kts | 177° |
| 2026-05-05 09:15 | 52.31294 | 4.75934 | 6 ft | 4 kts | 177° |
| 2026-05-05 09:15 | 52.31321 | 4.75932 | 6 ft | 4 kts | 177° |
| 2026-05-05 09:16 | 52.31348 | 4.75930 | 5 ft | 4 kts | 177° |
| 2026-05-05 09:16 | 52.31375 | 4.75928 | 4 ft | 4 kts | 176° |
| 2026-05-05 09:16 | 52.31400 | 4.75925 | 3 ft | 4 kts | 172° |
| 2026-05-05 09:16 | 52.31425 | 4.75913 | 5 ft | 4 kts | 144° |
| 2026-05-05 09:17 | 52.31440 | 4.75883 | 6 ft | 4 kts | 101° |
| 2026-05-05 09:17 | 52.31441 | 4.75842 | 6 ft | 4 kts | 86° |
| 2026-05-05 09:17 | 52.31439 | 4.75798 | 5 ft | 4 kts | 86° |
| 2026-05-05 09:17 | 52.31438 | 4.75754 | 4 ft | 4 kts | 86° |
| 2026-05-05 09:18 | 52.31436 | 4.75711 | 3 ft | 4 kts | 86° |
| 2026-05-05 09:18 | 52.31435 | 4.75677 | 3 ft | 0 kts | 86° |
| 2026-05-05 09:20 | 52.31435 | 4.75687 | 3 ft | 6 kts | 86° |
| 2026-05-05 09:20 | 52.31454 | 4.75780 | 5 ft | 9 kts | 40° |
| 2026-05-05 09:21 | 52.31509 | 4.75744 | 3 ft | 9 kts | 315° |
| 2026-05-05 09:21 | 52.31520 | 4.75662 | 3 ft | 7 kts | 268° |
| 2026-05-05 09:21 | 52.31515 | 4.75551 | 3 ft | 10 kts | 266° |
| 2026-05-05 09:21 | 52.31511 | 4.75435 | 3 ft | 10 kts | 266° |
| 2026-05-05 09:22 | 52.31506 | 4.75319 | 3 ft | 10 kts | 266° |
| 2026-05-05 09:22 | 52.31503 | 4.75193 | 3 ft | 13 kts | 267° |
| 2026-05-05 09:22 | 52.31497 | 4.75030 | 3 ft | 16 kts | 267° |
| 2026-05-05 09:22 | 52.31491 | 4.74846 | 3 ft | 16 kts | 267° |
| 2026-05-05 09:23 | 52.31488 | 4.74662 | 3 ft | 16 kts | 266° |
| 2026-05-05 09:23 | 52.31476 | 4.74479 | 4 ft | 16 kts | 263° |
| 2026-05-05 09:23 | 52.31484 | 4.74321 | 3 ft | 14 kts | 315° |
| 2026-05-05 09:23 | 52.31579 | 4.74299 | 3 ft | 14 kts | 6° |
| 2026-05-05 09:24 | 52.31677 | 4.74310 | 3 ft | 14 kts | 3° |
| 2026-05-05 09:24 | 52.31776 | 4.74320 | 3 ft | 14 kts | 3° |
| 2026-05-05 09:24 | 52.31874 | 4.74330 | 3 ft | 14 kts | 4° |
| 2026-05-05 09:24 | 52.31972 | 4.74339 | 3 ft | 14 kts | 2° |
| 2026-05-05 09:25 | 52.32030 | 4.74236 | 3 ft | 14 kts | 275° |
| 2026-05-05 09:25 | 52.32036 | 4.74076 | 3 ft | 14 kts | 272° |
| 2026-05-05 09:25 | 52.32040 | 4.73915 | 3 ft | 14 kts | 274° |
| 2026-05-05 09:25 | 52.32047 | 4.73755 | 4 ft | 14 kts | 274° |
| 2026-05-05 09:26 | 52.32052 | 4.73594 | 4 ft | 14 kts | 272° |
| 2026-05-05 09:26 | 52.32064 | 4.73435 | 3 ft | 14 kts | 287° |
| 2026-05-05 09:26 | 52.32122 | 4.73309 | 3 ft | 14 kts | 318° |
| 2026-05-05 09:26 | 52.32197 | 4.73204 | 3 ft | 14 kts | 320° |
| 2026-05-05 09:27 | 52.32272 | 4.73100 | 3 ft | 14 kts | 319° |
| 2026-05-05 09:27 | 52.32347 | 4.72995 | 3 ft | 14 kts | 319° |
| 2026-05-05 09:27 | 52.32421 | 4.72890 | 3 ft | 14 kts | 320° |
| 2026-05-05 09:27 | 52.32495 | 4.72787 | 3 ft | 14 kts | 318° |
| 2026-05-05 09:28 | 52.32569 | 4.72681 | 3 ft | 14 kts | 319° |
| 2026-05-05 09:28 | 52.32644 | 4.72576 | 3 ft | 14 kts | 318° |
| 2026-05-05 09:28 | 52.32712 | 4.72461 | 3 ft | 14 kts | 313° |
| 2026-05-05 09:28 | 52.32778 | 4.72340 | 3 ft | 14 kts | 310° |
| 2026-05-05 09:29 | 52.32841 | 4.72217 | 3 ft | 14 kts | 311° |
| 2026-05-05 09:29 | 52.32908 | 4.72099 | 3 ft | 14 kts | 312° |
| 2026-05-05 09:29 | 52.32972 | 4.71978 | 3 ft | 14 kts | 310° |
| 2026-05-05 09:29 | 52.33036 | 4.71857 | 3 ft | 14 kts | 311° |
| 2026-05-05 09:30 | 52.33100 | 4.71736 | 3 ft | 14 kts | 311° |
| 2026-05-05 09:30 | 52.33151 | 4.71602 | 3 ft | 14 kts | 277° |
| 2026-05-05 09:30 | 52.33108 | 4.71464 | 3 ft | 14 kts | 223° |
| 2026-05-05 09:30 | 52.33035 | 4.71356 | 3 ft | 14 kts | 220° |
| 2026-05-05 09:31 | 52.32960 | 4.71253 | 3 ft | 14 kts | 220° |
| 2026-05-05 09:31 | 52.32891 | 4.71149 | 3 ft | 11 kts | 226° |
| 2026-05-05 09:31 | 52.32864 | 4.71038 | 3 ft | 11 kts | 266° |
| 2026-05-05 09:31 | 52.32884 | 4.70927 | 2 ft | 11 kts | 317° |
| 2026-05-05 09:32 | 52.32995 | 4.70905 | 1 ft | 28 kts | 3° |
| 2026-05-05 09:32 | 52.33404 | 4.70946 | 2 ft | 93 kts | 3° |
| 2026-05-05 09:32 | 52.34242 | 4.71016 | 2 ft | 149 kts | 3° |
| 2026-05-05 09:32 | 52.35417 | 4.71103 | 258 ft | 177 kts | 7° |
| 2026-05-05 09:33 | 52.36687 | 4.71207 | 949 ft | 190 kts | 6° |
| 2026-05-05 09:33 | 52.38035 | 4.71356 | 1696 ft | 194 kts | 8° |
| 2026-05-05 09:33 | 52.39384 | 4.71529 | 2215 ft | 203 kts | 6° |
| 2026-05-05 09:33 | 52.40875 | 4.71653 | 2408 ft | 225 kts | 6° |
| 2026-05-05 09:34 | 52.42496 | 4.71520 | 2659 ft | 243 kts | 346° |
| 2026-05-05 09:34 | 52.44029 | 4.70317 | 3235 ft | 246 kts | 330° |
| 2026-05-05 09:34 | 52.45359 | 4.68473 | 3728 ft | 256 kts | 316° |
| 2026-05-05 09:34 | 52.46374 | 4.66136 | 4341 ft | 260 kts | 292° |
| 2026-05-05 09:35 | 52.46651 | 4.63195 | 4928 ft | 263 kts | 271° |
| 2026-05-05 09:35 | 52.46691 | 4.57046 | 6105 ft | 269 kts | 270° |
| 2026-05-05 09:35 | 52.46377 | 4.54030 | 6516 ft | 274 kts | 243° |
| 2026-05-05 09:36 | 52.45176 | 4.51617 | 6991 ft | 273 kts | 226° |
| 2026-05-05 09:36 | 52.43949 | 4.49202 | 7391 ft | 279 kts | 235° |
| 2026-05-05 09:36 | 52.42853 | 4.46579 | 7994 ft | 278 kts | 237° |
| 2026-05-05 09:36 | 52.41775 | 4.43938 | 8598 ft | 280 kts | 237° |
| 2026-05-05 09:37 | 52.40681 | 4.41295 | 9155 ft | 282 kts | 237° |
| 2026-05-05 09:37 | 52.39574 | 4.38665 | 9658 ft | 285 kts | 236° |
| 2026-05-05 09:37 | 52.38431 | 4.35990 | 10130 ft | 289 kts | 236° |
| 2026-05-05 09:37 | 52.37237 | 4.33223 | 10283 ft | 306 kts | 235° |
| 2026-05-05 09:38 | 52.35969 | 4.30307 | 10400 ft | 323 kts | 235° |
| 2026-05-05 09:38 | 52.34630 | 4.27250 | 10677 ft | 336 kts | 236° |
| 2026-05-05 09:38 | 52.33245 | 4.24103 | 11138 ft | 345 kts | 235° |
| 2026-05-05 09:38 | 52.31830 | 4.20901 | 11779 ft | 350 kts | 235° |
| 2026-05-05 09:39 | 52.30395 | 4.17665 | 12647 ft | 351 kts | 235° |
| 2026-05-05 09:39 | 52.28960 | 4.14434 | 13497 ft | 353 kts | 235° |
| 2026-05-05 09:39 | 52.27999 | 4.12272 | 13952 ft | 356 kts | 235° |
| 2026-05-05 09:39 | 52.26035 | 4.07861 | 14819 ft | 363 kts | 234° |
| 2026-05-05 09:40 | 52.25050 | 4.05653 | 15306 ft | 363 kts | 235° |
| 2026-05-05 09:40 | 52.23073 | 4.01230 | 16294 ft | 365 kts | 234° |
| 2026-05-05 09:40 | 52.21567 | 3.97863 | 17029 ft | 367 kts | 234° |
| 2026-05-05 09:40 | 52.20567 | 3.95627 | 17412 ft | 371 kts | 234° |
| 2026-05-05 09:41 | 52.19032 | 3.92203 | 17985 ft | 377 kts | 233° |
| 2026-05-05 09:41 | 52.17485 | 3.88759 | 18710 ft | 375 kts | 233° |
| 2026-05-05 09:41 | 52.15427 | 3.84180 | 19682 ft | 372 kts | 233° |
| 2026-05-05 09:41 | 52.14414 | 3.81930 | 20037 ft | 374 kts | 233° |
| 2026-05-05 09:42 | 52.12872 | 3.78509 | 20579 ft | 376 kts | 233° |